Time,TemperatureF,DewpointF,PressureIn,WindDirection,WindDirectionDegrees,WindSpeedMPH,WindSpeedGustMPH,Humidity,HourlyPrecipIn,Conditions,Clouds,dailyrainin,SoftwareType,DateUTC
2013-04-08 00:00:00,43.4,39.8,29.96,SSE,165,11.0,11.0,87,0.00,,,0.00,Wunderground v.1.15,2013-04-08 04:00:00,
2013-04-08 00:06:00,43.6,40.0,29.97,SSW,205,12.0,12.0,87,0.00,,,0.00,Wunderground v.1.15,2013-04-08 04:06:00,
2013-04-08 00:11:00,43.6,40.0,29.97,SSE,153,11.0,11.0,87,0.00,,,0.00,Wunderground v.1.15,2013-04-08 04:11:00,
2013-04-08 00:16:00,43.7,40.1,29.96,SE,138,10.0,11.0,87,0.00,,,0.00,Wunderground v.1.15,2013-04-08 04:16:00,
2013-04-08 00:26:00,43.8,40.2,29.95,SE,141,10.0,14.0,87,0.00,,,0.00,Wunderground v.1.15,2013-04-08 04:26:00,
2013-04-08 00:31:00,43.9,40.3,29.95,SSE,156,12.0,12.0,87,0.00,,,0.00,Wunderground v.1.15,2013-04-08 04:31:00,
2013-04-08 00:41:00,44.1,40.5,29.95,SSE,151,12.0,13.0,87,0.00,,,0.00,Wunderground v.1.15,2013-04-08 04:41:00,
2013-04-08 00:51:00,44.2,40.6,29.95,SSW,195,13.0,13.0,87,0.00,,,0.00,Wunderground v.1.15,2013-04-08 04:51:00,
2013-04-08 00:56:00,44.2,40.6,29.95,SSE,162,13.0,14.0,87,0.00,,,0.00,Wunderground v.1.15,2013-04-08 04:56:00,
2013-04-08 01:01:00,44.1,40.5,29.95,SSW,209,12.0,12.0,87,0.00,,,0.00,Wunderground v.1.15,2013-04-08 05:01:00,
2013-04-08 01:10:00,44.0,40.4,29.95,SE,144,12.0,12.0,87,0.00,,,0.00,Wunderground v.1.15,2013-04-08 05:10:00,
2013-04-08 01:15:00,44.0,40.7,29.94,SSW,198,11.0,14.0,88,0.00,,,0.00,Wunderground v.1.15,2013-04-08 05:15:00,
2013-04-08 01:20:00,43.9,40.6,29.94,SSE,165,10.0,10.0,88,0.00,,,0.00,Wunderground v.1.15,2013-04-08 05:20:00,
2013-04-08 01:25:00,44.0,40.7,29.94,South,185,11.0,11.0,88,0.00,,,0.00,Wunderground v.1.15,2013-04-08 05:25:00,
2013-04-08 01:30:00,43.9,40.6,29.94,SSE,168,11.0,13.0,88,0.00,,,0.00,Wunderground v.1.15,2013-04-08 05:30:00,
2013-04-08 01:40:00,43.9,40.6,29.93,SSW,210,11.0,11.0,88,0.00,,,0.00,Wunderground v.1.15,2013-04-08 05:40:00,
2013-04-08 01:45:00,43.9,40.6,29.92,SSW,210,11.0,11.0,88,0.00,,,0.00,Wunderground v.1.15,2013-04-08 05:45:00,
2013-04-08 01:55:00,43.9,40.6,29.91,SSW,202,11.0,13.0,88,0.00,,,0.00,Wunderground v.1.15,2013-04-08 05:55:00,
2013-04-08 02:05:00,43.8,40.5,29.91,SSW,207,11.0,11.0,88,0.00,,,0.00,Wunderground v.1.15,2013-04-08 06:05:00,
2013-04-08 02:15:00,43.7,40.4,29.91,SSW,207,11.0,12.0,88,0.00,,,0.00,Wunderground v.1.15,2013-04-08 06:15:00,
2013-04-08 02:25:00,43.7,40.4,29.91,SSW,192,10.0,15.0,88,0.00,,,0.00,Wunderground v.1.15,2013-04-08 06:25:00,
2013-04-08 02:30:00,43.7,40.4,29.90,South,190,8.0,8.0,88,0.00,,,0.00,Wunderground v.1.15,2013-04-08 06:30:00,
2013-04-08 02:36:00,43.7,40.4,29.90,SSW,195,7.0,8.0,88,0.00,,,0.00,Wunderground v.1.15,2013-04-08 06:36:00,
2013-04-08 02:45:00,43.5,40.5,29.91,SSW,213,6.0,7.0,89,0.00,,,0.00,Wunderground v.1.15,2013-04-08 06:45:00,
2013-04-08 02:50:00,43.5,40.5,29.90,SSW,210,8.0,8.0,89,0.00,,,0.00,Wunderground v.1.15,2013-04-08 06:50:00,
2013-04-08 02:56:00,43.3,40.3,29.90,SSW,194,9.0,9.0,89,0.00,,,0.00,Wunderground v.1.15,2013-04-08 06:56:00,
2013-04-08 03:00:00,43.2,40.2,29.90,WSW,248,8.0,8.0,89,0.00,,,0.00,Wunderground v.1.15,2013-04-08 07:00:00,
2013-04-08 03:06:00,43.1,40.1,29.90,South,186,8.0,8.0,89,0.00,,,0.00,Wunderground v.1.15,2013-04-08 07:06:00,
2013-04-08 03:16:00,43.0,40.0,29.90,SSW,198,11.0,11.0,89,0.00,,,0.00,Wunderground v.1.15,2013-04-08 07:16:00,
2013-04-08 03:21:00,42.8,39.8,29.90,SW,215,9.0,9.0,89,0.00,,,0.00,Wunderground v.1.15,2013-04-08 07:21:00,
2013-04-08 03:26:00,42.7,40.0,29.90,SSE,163,7.0,14.0,90,0.00,,,0.00,Wunderground v.1.15,2013-04-08 07:26:00,
2013-04-08 03:31:00,42.7,40.0,29.89,South,188,8.0,8.0,90,0.00,,,0.00,Wunderground v.1.15,2013-04-08 07:31:00,
2013-04-08 03:40:00,42.5,39.8,29.89,SSW,205,7.0,7.0,90,0.00,,,0.00,Wunderground v.1.15,2013-04-08 07:40:00,
2013-04-08 03:50:00,42.4,39.7,29.89,SW,218,7.0,7.0,90,0.00,,,0.00,Wunderground v.1.15,2013-04-08 07:50:00,
2013-04-08 03:55:00,42.5,39.8,29.88,South,169,7.0,8.0,90,0.00,,,0.00,Wunderground v.1.15,2013-04-08 07:55:00,
2013-04-08 04:05:00,42.4,39.7,29.88,South,171,8.0,10.0,90,0.00,,,0.00,Wunderground v.1.15,2013-04-08 08:05:00,
2013-04-08 04:10:00,42.4,39.7,29.88,SE,146,8.0,8.0,90,0.00,,,0.00,Wunderground v.1.15,2013-04-08 08:10:00,
2013-04-08 04:20:00,42.4,39.7,29.88,SW,215,6.0,6.0,90,0.00,,,0.00,Wunderground v.1.15,2013-04-08 08:20:00,
2013-04-08 04:25:00,42.3,39.6,29.88,South,179,5.0,6.0,90,0.00,,,0.00,Wunderground v.1.15,2013-04-08 08:25:00,
2013-04-08 04:30:00,42.2,39.5,29.88,South,185,6.0,8.0,90,0.00,,,0.00,Wunderground v.1.15,2013-04-08 08:30:00,
2013-04-08 04:35:00,42.2,39.5,29.88,SSW,202,5.0,8.0,90,0.00,,,0.00,Wunderground v.1.15,2013-04-08 08:35:00,
2013-04-08 04:41:00,42.1,39.4,29.88,SW,226,4.0,4.0,90,0.00,,,0.00,Wunderground v.1.15,2013-04-08 08:41:00,
2013-04-08 04:51:00,41.9,39.2,29.88,SW,222,2.0,2.0,90,0.00,,,0.00,Wunderground v.1.15,2013-04-08 08:51:00,
2013-04-08 04:56:00,41.7,39.0,29.88,SW,232,1.0,2.0,90,0.00,,,0.00,Wunderground v.1.15,2013-04-08 08:56:00,
2013-04-08 05:01:00,41.6,38.9,29.88,SSW,207,1.0,2.0,90,0.00,,,0.00,Wunderground v.1.15,2013-04-08 09:01:00,
2013-04-08 05:11:00,41.4,38.7,29.89,WSW,254,2.0,2.0,90,0.00,,,0.00,Wunderground v.1.15,2013-04-08 09:11:00,
2013-04-08 05:20:00,41.1,38.4,29.89,West,273,2.0,2.0,90,0.00,,,0.00,Wunderground v.1.15,2013-04-08 09:20:00,
2013-04-08 05:25:00,41.0,38.3,29.89,West,268,2.0,2.0,90,0.00,,,0.00,Wunderground v.1.15,2013-04-08 09:25:00,
2013-04-08 05:30:00,40.9,38.5,29.89,SW,219,1.0,1.0,91,0.00,,,0.00,Wunderground v.1.15,2013-04-08 09:30:00,
2013-04-08 05:35:00,40.7,38.3,29.89,South,173,1.0,2.0,91,0.00,,,0.00,Wunderground v.1.15,2013-04-08 09:35:00,
2013-04-08 05:40:00,40.6,38.2,29.89,SSW,213,1.0,1.0,91,0.00,,,0.00,Wunderground v.1.15,2013-04-08 09:40:00,
2013-04-08 05:45:00,40.5,38.1,29.89,SSW,195,3.0,3.0,91,0.00,,,0.00,Wunderground v.1.15,2013-04-08 09:45:00,
2013-04-08 05:55:00,40.2,37.8,29.90,WSW,248,2.0,3.0,91,0.00,,,0.00,Wunderground v.1.15,2013-04-08 09:55:00,
2013-04-08 06:01:00,40.1,37.7,29.90,SW,234,2.0,2.0,91,0.00,,,0.00,Wunderground v.1.15,2013-04-08 10:01:00,
2013-04-08 06:06:00,40.0,37.6,29.91,WSW,254,1.0,2.0,91,0.00,,,0.00,Wunderground v.1.15,2013-04-08 10:06:00,
2013-04-08 06:16:00,39.7,37.3,29.91,WSW,254,0.0,0.0,91,0.00,,,0.00,Wunderground v.1.15,2013-04-08 10:16:00,
2013-04-08 06:25:00,39.5,37.1,29.92,WNW,294,0.0,4.0,91,0.00,,,0.00,Wunderground v.1.15,2013-04-08 10:25:00,
2013-04-08 06:35:00,39.5,37.1,29.93,WNW,286,2.0,2.0,91,0.00,,,0.00,Wunderground v.1.15,2013-04-08 10:35:00,
2013-04-08 06:40:00,39.5,37.1,29.92,WSW,248,1.0,1.0,91,0.00,,,0.00,Wunderground v.1.15,2013-04-08 10:40:00,
2013-04-08 06:50:00,40.5,38.1,29.92,West,260,0.0,1.0,91,0.00,,,0.00,Wunderground v.1.15,2013-04-08 10:50:00,
2013-04-08 06:56:00,41.1,38.4,29.92,WSW,250,1.0,4.0,90,0.00,,,0.00,Wunderground v.1.15,2013-04-08 10:56:00,
2013-04-08 07:05:00,41.7,38.7,29.92,WSW,250,3.0,4.0,89,0.00,,,0.00,Wunderground v.1.15,2013-04-08 11:05:00,
2013-04-08 07:11:00,42.1,39.1,29.92,West,263,4.0,7.0,89,0.00,,,0.00,Wunderground v.1.15,2013-04-08 11:11:00,
2013-04-08 07:21:00,42.7,39.4,29.92,WNW,288,6.0,11.0,88,0.00,,,0.00,Wunderground v.1.15,2013-04-08 11:21:00,
2013-04-08 07:26:00,43.0,39.4,29.93,WSW,244,7.0,11.0,87,0.00,,,0.00,Wunderground v.1.15,2013-04-08 11:26:00,
2013-04-08 07:36:00,43.6,39.7,29.93,WNW,291,7.0,10.0,86,0.00,,,0.00,Wunderground v.1.15,2013-04-08 11:36:00,
2013-04-08 07:41:00,44.0,40.1,29.93,WNW,286,7.0,7.0,86,0.00,,,0.00,Wunderground v.1.15,2013-04-08 11:41:00,
2013-04-08 07:50:00,45.1,40.2,29.94,WNW,294,7.0,11.0,83,0.00,,,0.00,Wunderground v.1.15,2013-04-08 11:50:00,
2013-04-08 07:56:00,45.6,40.7,29.94,WNW,290,8.0,11.0,83,0.00,,,0.00,Wunderground v.1.15,2013-04-08 11:56:00,
2013-04-08 08:05:00,46.2,40.4,29.94,WNW,286,10.0,16.0,80,0.00,,,0.00,Wunderground v.1.15,2013-04-08 12:05:00,
2013-04-08 08:15:00,46.4,39.9,29.93,WNW,283,12.0,13.0,78,0.00,,,0.00,Wunderground v.1.15,2013-04-08 12:15:00,
2013-04-08 08:20:00,46.8,40.6,29.93,WNW,303,12.0,12.0,79,0.00,,,0.00,Wunderground v.1.15,2013-04-08 12:20:00,
2013-04-08 08:25:00,47.3,40.1,29.93,WNW,296,11.0,15.0,76,0.00,,,0.00,Wunderground v.1.15,2013-04-08 12:25:00,
2013-04-08 08:30:00,47.8,39.9,29.93,WNW,294,14.0,20.0,74,0.00,,,0.00,Wunderground v.1.15,2013-04-08 12:30:00,
2013-04-08 08:40:00,48.9,39.5,29.94,WNW,288,12.0,21.0,70,0.00,,,0.00,Wunderground v.1.15,2013-04-08 12:40:00,
2013-04-08 08:45:00,49.4,39.3,29.94,West,280,14.0,23.0,68,0.00,,,0.00,Wunderground v.1.15,2013-04-08 12:45:00,
2013-04-08 08:50:00,49.8,38.9,29.94,West,280,17.0,17.0,66,0.00,,,0.00,Wunderground v.1.15,2013-04-08 12:50:00,
2013-04-08 08:55:00,50.1,37.6,29.94,WNW,286,18.0,18.0,62,0.00,,,0.00,Wunderground v.1.15,2013-04-08 12:55:00,
2013-04-08 09:00:00,50.4,37.9,29.93,WNW,294,18.0,18.0,62,0.00,,,0.00,Wunderground v.1.15,2013-04-08 13:00:00,
2013-04-08 09:10:00,50.8,37.4,29.93,WNW,300,19.0,24.0,60,0.00,,,0.00,Wunderground v.1.15,2013-04-08 13:10:00,
2013-04-08 09:15:00,51.1,37.7,29.94,WNW,296,17.0,24.0,60,0.00,,,0.00,Wunderground v.1.15,2013-04-08 13:15:00,
2013-04-08 09:20:00,51.3,37.0,29.94,WNW,294,16.0,23.0,58,0.00,,,0.00,Wunderground v.1.15,2013-04-08 13:20:00,
2013-04-08 09:26:00,51.2,37.4,29.94,WNW,296,17.0,23.0,59,0.00,,,0.00,Wunderground v.1.15,2013-04-08 13:26:00,
2013-04-08 09:36:00,51.6,36.9,29.95,WNW,290,17.0,21.0,57,0.00,,,0.00,Wunderground v.1.15,2013-04-08 13:36:00,
2013-04-08 09:41:00,51.7,36.9,29.95,WNW,288,17.0,17.0,57,0.00,,,0.00,Wunderground v.1.15,2013-04-08 13:41:00,
2013-04-08 09:46:00,51.9,36.7,29.96,WNW,294,17.0,24.0,56,0.00,,,0.00,Wunderground v.1.15,2013-04-08 13:46:00,
2013-04-08 09:56:00,52.4,36.7,29.96,WSW,245,15.0,16.0,55,0.00,,,0.00,Wunderground v.1.15,2013-04-08 13:56:00,
2013-04-08 10:01:00,52.7,37.0,29.96,WNW,296,14.0,16.0,55,0.00,,,0.00,Wunderground v.1.15,2013-04-08 14:01:00,
2013-04-08 10:05:00,52.9,37.2,29.96,West,279,12.0,18.0,55,0.00,,,0.00,Wunderground v.1.15,2013-04-08 14:05:00,
2013-04-08 10:15:00,52.6,36.9,29.96,WNW,288,16.0,18.0,55,0.00,,,0.00,Wunderground v.1.15,2013-04-08 14:15:00,
2013-04-08 10:25:00,52.7,37.4,29.97,WNW,302,17.0,22.0,56,0.00,,,0.00,Wunderground v.1.15,2013-04-08 14:25:00,
2013-04-08 10:36:00,52.8,36.1,29.97,West,273,18.0,20.0,53,0.00,,,0.00,Wunderground v.1.15,2013-04-08 14:36:00,
2013-04-08 10:41:00,53.1,36.4,29.97,WNW,297,16.0,16.0,53,0.00,,,0.00,Wunderground v.1.15,2013-04-08 14:41:00,
2013-04-08 10:51:00,53.8,36.6,29.97,WNW,300,12.0,12.0,52,0.00,,,0.00,Wunderground v.1.15,2013-04-08 14:51:00,
2013-04-08 10:56:00,53.8,36.6,29.98,WNW,299,12.0,12.0,52,0.00,,,0.00,Wunderground v.1.15,2013-04-08 14:56:00,
2013-04-08 11:01:00,54.2,36.5,29.98,WNW,294,11.0,15.0,51,0.00,,,0.00,Wunderground v.1.15,2013-04-08 15:01:00,
2013-04-08 11:11:00,54.2,36.5,29.98,WNW,296,13.0,13.0,51,0.00,,,0.00,Wunderground v.1.15,2013-04-08 15:11:00,
2013-04-08 11:20:00,54.0,36.3,29.98,NNW,335,9.0,14.0,51,0.00,,,0.00,Wunderground v.1.15,2013-04-08 15:20:00,
2013-04-08 11:26:00,53.7,36.0,29.98,WNW,291,12.0,14.0,51,0.00,,,0.00,Wunderground v.1.15,2013-04-08 15:26:00,
2013-04-08 11:36:00,54.1,36.9,29.98,WNW,298,15.0,20.0,52,0.00,,,0.00,Wunderground v.1.15,2013-04-08 15:36:00,
2013-04-08 11:41:00,54.3,36.0,29.98,West,276,13.0,18.0,50,0.00,,,0.00,Wunderground v.1.15,2013-04-08 15:41:00,
2013-04-08 11:51:00,54.0,36.3,29.98,WNW,296,12.0,12.0,51,0.00,,,0.00,Wunderground v.1.15,2013-04-08 15:51:00,
2013-04-08 12:01:00,54.0,36.8,29.99,NW,307,13.0,13.0,52,0.00,,,0.00,Wunderground v.1.15,2013-04-08 16:01:00,
2013-04-08 12:06:00,54.4,36.6,29.98,West,269,13.0,13.0,51,0.00,,,0.00,Wunderground v.1.15,2013-04-08 16:06:00,
2013-04-08 12:11:00,54.4,36.6,29.99,NNE,23,12.0,12.0,51,0.00,,,0.00,Wunderground v.1.15,2013-04-08 16:11:00,
2013-04-08 12:20:00,54.6,36.8,29.99,WNW,302,10.0,15.0,51,0.00,,,0.00,Wunderground v.1.15,2013-04-08 16:20:00,
2013-04-08 12:25:00,54.6,36.8,29.99,WNW,286,10.0,15.0,51,0.00,,,0.00,Wunderground v.1.15,2013-04-08 16:25:00,
2013-04-08 12:30:00,54.4,36.6,29.99,NW,310,11.0,11.0,51,0.00,,,0.00,Wunderground v.1.15,2013-04-08 16:30:00,
2013-04-08 12:35:00,54.3,37.0,30.00,NNE,15,9.0,11.0,52,0.00,,,0.00,Wunderground v.1.15,2013-04-08 16:35:00,
2013-04-08 12:45:00,55.3,37.0,30.00,NW,313,9.0,12.0,50,0.00,,,0.00,Wunderground v.1.15,2013-04-08 16:45:00,
2013-04-08 12:50:00,55.6,37.2,30.00,NNW,343,10.0,10.0,50,0.00,,,0.00,Wunderground v.1.15,2013-04-08 16:50:00,
2013-04-08 12:56:00,56.0,37.1,30.00,WNW,294,9.0,13.0,49,0.00,,,0.00,Wunderground v.1.15,2013-04-08 16:56:00,
2013-04-08 13:01:00,56.0,37.1,30.01,NE,42,9.0,9.0,49,0.00,,,0.00,Wunderground v.1.15,2013-04-08 17:01:00,
2013-04-08 13:11:00,56.1,37.2,30.00,West,280,12.0,12.0,49,0.00,,,0.00,Wunderground v.1.15,2013-04-08 17:11:00,
2013-04-08 13:21:00,57.8,38.8,30.00,WSW,245,4.0,4.0,49,0.00,,,0.00,Wunderground v.1.15,2013-04-08 17:21:00,
2013-04-08 13:31:00,57.4,37.3,30.00,NW,308,5.0,5.0,47,0.00,,,0.00,Wunderground v.1.15,2013-04-08 17:31:00,
2013-04-08 13:40:00,58.0,37.9,30.00,West,272,4.0,9.0,47,0.00,,,0.00,Wunderground v.1.15,2013-04-08 17:40:00,
2013-04-08 13:45:00,57.8,37.7,30.00,NW,320,6.0,9.0,47,0.00,,,0.00,Wunderground v.1.15,2013-04-08 17:45:00,
2013-04-08 13:50:00,58.4,36.6,30.00,NNW,336,6.0,7.0,44,0.00,,,0.00,Wunderground v.1.15,2013-04-08 17:50:00,
2013-04-08 14:00:00,57.9,36.1,30.00,West,275,9.0,9.0,44,0.00,,,0.00,Wunderground v.1.15,2013-04-08 18:00:00,
2013-04-08 14:05:00,57.9,36.1,30.00,NW,309,10.0,13.0,44,0.00,,,0.00,Wunderground v.1.15,2013-04-08 18:05:00,
2013-04-08 14:10:00,57.8,36.0,30.00,WNW,300,12.0,12.0,44,0.00,,,0.00,Wunderground v.1.15,2013-04-08 18:10:00,
2013-04-08 14:15:00,57.9,36.1,30.00,WNW,286,10.0,12.0,44,0.00,,,0.00,Wunderground v.1.15,2013-04-08 18:15:00,
2013-04-08 14:25:00,58.3,36.5,30.00,NNW,331,10.0,10.0,44,0.00,,,0.00,Wunderground v.1.15,2013-04-08 18:25:00,
2013-04-08 14:31:00,57.8,36.0,30.00,NNE,13,6.0,6.0,44,0.00,,,0.00,Wunderground v.1.15,2013-04-08 18:31:00,
2013-04-08 14:36:00,57.5,35.7,30.00,West,279,7.0,13.0,44,0.00,,,0.00,Wunderground v.1.15,2013-04-08 18:36:00,
2013-04-08 14:41:00,58.0,36.2,30.00,NW,305,9.0,9.0,44,0.00,,,0.00,Wunderground v.1.15,2013-04-08 18:41:00,
2013-04-08 14:51:00,58.3,35.9,30.00,NW,311,8.0,8.0,43,0.00,,,0.00,Wunderground v.1.15,2013-04-08 18:51:00,
2013-04-08 14:56:00,58.5,36.6,30.00,NW,311,8.0,12.0,44,0.00,,,0.00,Wunderground v.1.15,2013-04-08 18:56:00,
2013-04-08 15:06:00,58.8,36.9,30.00,NW,315,7.0,8.0,44,0.00,,,0.00,Wunderground v.1.15,2013-04-08 19:06:00,
2013-04-08 15:11:00,59.3,37.4,30.00,WNW,283,6.0,6.0,44,0.00,,,0.00,Wunderground v.1.15,2013-04-08 19:11:00,
2013-04-08 15:21:00,58.9,37.0,30.00,ENE,67,5.0,5.0,44,0.00,,,0.00,Wunderground v.1.15,2013-04-08 19:21:00,
2013-04-08 15:26:00,58.7,36.2,30.00,WNW,286,7.0,7.0,43,0.00,,,0.00,Wunderground v.1.15,2013-04-08 19:26:00,
2013-04-08 15:31:00,58.9,37.0,30.01,WNW,286,7.0,11.0,44,0.00,,,0.00,Wunderground v.1.15,2013-04-08 19:31:00,
2013-04-08 15:41:00,58.6,35.6,30.01,WNW,296,7.0,11.0,42,0.00,,,0.00,Wunderground v.1.15,2013-04-08 19:41:00,
2013-04-08 15:50:00,58.7,36.2,30.01,NNW,341,9.0,9.0,43,0.00,,,0.00,Wunderground v.1.15,2013-04-08 19:50:00,
2013-04-08 15:55:00,58.8,35.7,30.01,WNW,288,8.0,9.0,42,0.00,,,0.00,Wunderground v.1.15,2013-04-08 19:55:00,
2013-04-08 16:06:00,58.9,35.2,30.00,WNW,298,6.0,7.0,41,0.00,,,0.00,Wunderground v.1.15,2013-04-08 20:06:00,
2013-04-08 16:11:00,58.8,36.3,30.00,NNE,32,4.0,4.0,43,0.00,,,0.00,Wunderground v.1.15,2013-04-08 20:11:00,
2013-04-08 16:20:00,59.4,35.7,30.01,NNW,333,3.0,3.0,41,0.00,,,0.00,Wunderground v.1.15,2013-04-08 20:20:00,
2013-04-08 16:26:00,59.1,36.6,30.00,WNW,290,3.0,3.0,43,0.00,,,0.00,Wunderground v.1.15,2013-04-08 20:26:00,
2013-04-08 16:35:00,59.3,35.6,30.00,West,272,5.0,5.0,41,0.00,,,0.00,Wunderground v.1.15,2013-04-08 20:35:00,
2013-04-08 16:51:00,56.1,38.7,30.00,ESE,106,9.0,9.0,52,0.00,,,0.00,Wunderground v.1.15,2013-04-08 20:51:00,
2013-04-08 16:56:00,56.0,39.1,30.00,East,93,8.0,9.0,53,0.00,,,0.00,Wunderground v.1.15,2013-04-08 20:56:00,
2013-04-08 17:00:00,55.5,38.1,30.00,ESE,115,8.0,9.0,52,0.00,,,0.00,Wunderground v.1.15,2013-04-08 21:00:00,
2013-04-08 17:11:00,54.9,39.0,30.01,East,86,8.0,8.0,55,0.00,,,0.00,Wunderground v.1.15,2013-04-08 21:11:00,
2013-04-08 17:20:00,55.0,37.7,30.03,East,80,6.0,6.0,52,0.00,,,0.00,Wunderground v.1.15,2013-04-08 21:20:00,
2013-04-08 17:25:00,55.0,38.2,30.03,East,80,5.0,7.0,53,0.00,,,0.00,Wunderground v.1.15,2013-04-08 21:25:00,
2013-04-08 17:30:00,54.9,37.6,30.03,East,89,6.0,6.0,52,0.00,,,0.00,Wunderground v.1.15,2013-04-08 21:30:00,
2013-04-08 17:40:00,54.7,37.4,30.04,East,80,5.0,6.0,52,0.00,,,0.00,Wunderground v.1.15,2013-04-08 21:40:00,
2013-04-08 17:50:00,54.3,37.5,30.05,East,96,5.0,5.0,53,0.00,,,0.00,Wunderground v.1.15,2013-04-08 21:50:00,
2013-04-08 17:55:00,54.1,37.3,30.05,ESE,113,4.0,6.0,53,0.00,,,0.00,Wunderground v.1.15,2013-04-08 21:55:00,
2013-04-08 18:05:00,53.7,37.0,30.05,SE,127,4.0,5.0,53,0.00,,,0.00,Wunderground v.1.15,2013-04-08 22:05:00,
2013-04-08 18:11:00,53.8,37.1,30.05,East,94,4.0,4.0,53,0.00,,,0.00,Wunderground v.1.15,2013-04-08 22:11:00,
2013-04-08 18:20:00,53.7,37.0,30.05,ESE,106,2.0,2.0,53,0.00,,,0.00,Wunderground v.1.15,2013-04-08 22:20:00,
2013-04-08 18:25:00,53.8,36.6,30.06,SSE,156,2.0,2.0,52,0.00,,,0.00,Wunderground v.1.15,2013-04-08 22:25:00,
2013-04-08 18:30:00,53.8,37.1,30.06,ESE,106,2.0,2.0,53,0.00,,,0.00,Wunderground v.1.15,2013-04-08 22:30:00,
2013-04-08 18:35:00,53.9,37.1,30.06,SSE,166,1.0,2.0,53,0.00,,,0.00,Wunderground v.1.15,2013-04-08 22:35:00,
2013-04-08 18:45:00,53.9,36.7,30.06,SE,130,1.0,1.0,52,0.00,,,0.00,Wunderground v.1.15,2013-04-08 22:45:00,
2013-04-08 18:56:00,52.9,36.2,30.06,SE,130,0.0,0.0,53,0.00,,,0.00,Wunderground v.1.15,2013-04-08 22:56:00,
2013-04-08 19:01:00,52.6,36.4,30.06,SE,134,0.0,0.0,54,0.00,,,0.00,Wunderground v.1.15,2013-04-08 23:01:00,
2013-04-08 19:10:00,51.7,37.4,30.08,SW,229,1.0,2.0,58,0.00,,,0.00,Wunderground v.1.15,2013-04-08 23:10:00,
2013-04-08 19:16:00,51.1,37.7,30.08,SW,219,1.0,2.0,60,0.00,,,0.00,Wunderground v.1.15,2013-04-08 23:16:00,
2013-04-08 19:20:00,50.6,37.6,30.08,WSW,245,1.0,1.0,61,0.00,,,0.00,Wunderground v.1.15,2013-04-08 23:20:00,
2013-04-08 19:30:00,48.3,38.6,30.08,ENE,75,1.0,1.0,69,0.00,,,0.00,Wunderground v.1.15,2013-04-08 23:30:00,
2013-04-08 19:40:00,47.7,39.8,30.07,ENE,73,1.0,1.0,74,0.00,,,0.00,Wunderground v.1.15,2013-04-08 23:40:00,
2013-04-08 19:45:00,47.2,38.6,30.07,ENE,73,0.0,1.0,72,0.00,,,0.00,Wunderground v.1.15,2013-04-08 23:45:00,
2013-04-08 19:56:00,46.5,38.7,30.08,NW,314,0.0,0.0,74,0.00,,,0.00,Wunderground v.1.15,2013-04-08 23:56:00,
2013-04-08 20:06:00,46.0,38.2,30.08,West,279,2.0,4.0,74,0.00,,,0.00,Wunderground v.1.15,2013-04-09 00:06:00,
2013-04-08 20:11:00,45.9,38.1,30.08,West,279,2.0,2.0,74,0.00,,,0.00,Wunderground v.1.15,2013-04-09 00:11:00,
2013-04-08 20:16:00,45.6,38.1,30.08,West,273,1.0,2.0,75,0.00,,,0.00,Wunderground v.1.15,2013-04-09 00:16:00,
2013-04-08 20:26:00,45.3,37.8,30.08,NNE,15,0.0,0.0,75,0.00,,,0.00,Wunderground v.1.15,2013-04-09 00:26:00,
2013-04-08 20:31:00,44.9,37.5,30.08,NNW,332,0.0,0.0,75,0.00,,,0.00,Wunderground v.1.15,2013-04-09 00:31:00,
2013-04-08 20:36:00,44.4,37.3,30.09,NNW,333,0.0,0.0,76,0.00,,,0.00,Wunderground v.1.15,2013-04-09 00:36:00,
2013-04-08 20:45:00,44.5,37.1,30.09,West,265,0.0,0.0,75,0.00,,,0.00,Wunderground v.1.15,2013-04-09 00:45:00,
2013-04-08 20:50:00,43.9,37.2,30.10,ENE,69,0.0,0.0,77,0.00,,,0.00,Wunderground v.1.15,2013-04-09 00:50:00,
2013-04-08 21:00:00,43.3,36.9,30.10,ENE,66,0.0,0.0,78,0.00,,,0.00,Wunderground v.1.15,2013-04-09 01:00:00,
2013-04-08 21:11:00,43.0,37.6,30.10,ENE,66,0.0,0.0,81,0.00,,,0.00,Wunderground v.1.15,2013-04-09 01:11:00,
2013-04-08 21:16:00,43.1,37.3,30.10,ENE,66,0.0,0.0,80,0.00,,,0.00,Wunderground v.1.15,2013-04-09 01:16:00,
2013-04-08 21:21:00,43.1,37.0,30.11,ENE,66,0.0,0.0,79,0.00,,,0.00,Wunderground v.1.15,2013-04-09 01:21:00,
2013-04-08 21:25:00,43.3,37.2,30.11,ENE,66,0.0,0.0,79,0.00,,,0.00,Wunderground v.1.15,2013-04-09 01:25:00,
2013-04-08 21:35:00,42.5,36.8,30.11,ENE,66,0.0,0.0,80,0.00,,,0.00,Wunderground v.1.15,2013-04-09 01:35:00,
2013-04-08 21:40:00,42.8,36.7,30.11,ENE,66,0.0,0.0,79,0.00,,,0.00,Wunderground v.1.15,2013-04-09 01:40:00,
2013-04-08 21:46:00,42.8,36.4,30.11,ENE,66,0.0,0.0,78,0.00,,,0.00,Wunderground v.1.15,2013-04-09 01:46:00,
2013-04-08 21:55:00,42.8,36.1,30.12,SSE,168,0.0,0.0,77,0.00,,,0.00,Wunderground v.1.15,2013-04-09 01:55:00,
2013-04-08 22:05:00,41.7,36.0,30.12,South,169,0.0,0.0,80,0.00,,,0.00,Wunderground v.1.15,2013-04-09 02:05:00,
2013-04-08 22:15:00,41.2,35.5,30.13,SSW,205,0.0,0.0,80,0.00,,,0.00,Wunderground v.1.15,2013-04-09 02:15:00,
2013-04-08 22:25:00,40.8,35.7,30.13,SW,225,0.0,0.0,82,0.00,,,0.00,Wunderground v.1.15,2013-04-09 02:25:00,
2013-04-08 22:31:00,40.7,35.9,30.13,SSE,156,0.0,0.0,83,0.00,,,0.00,Wunderground v.1.15,2013-04-09 02:31:00,
2013-04-08 22:40:00,41.1,36.6,30.13,SSW,213,0.0,0.0,84,0.00,,,0.00,Wunderground v.1.15,2013-04-09 02:40:00,
2013-04-08 22:45:00,40.9,36.4,30.13,SSW,213,0.0,0.0,84,0.00,,,0.00,Wunderground v.1.15,2013-04-09 02:45:00,
2013-04-08 22:50:00,40.6,36.1,30.13,West,264,0.0,0.0,84,0.00,,,0.00,Wunderground v.1.15,2013-04-09 02:50:00,
2013-04-08 22:55:00,40.1,36.0,30.13,South,186,0.0,0.0,85,0.00,,,0.00,Wunderground v.1.15,2013-04-09 02:55:00,
2013-04-08 23:05:00,39.8,35.7,30.13,West,271,0.0,0.0,85,0.00,,,0.00,Wunderground v.1.15,2013-04-09 03:05:00,
2013-04-08 23:11:00,39.6,35.8,30.14,West,271,0.0,0.0,86,0.00,,,0.00,Wunderground v.1.15,2013-04-09 03:11:00,
2013-04-08 23:21:00,39.4,35.3,30.13,WNW,288,0.0,0.0,85,0.00,,,0.00,Wunderground v.1.15,2013-04-09 03:21:00,
2013-04-08 23:31:00,38.7,34.9,30.13,WNW,284,0.0,0.0,86,0.00,,,0.00,Wunderground v.1.15,2013-04-09 03:31:00,
2013-04-08 23:40:00,38.7,35.2,30.13,West,275,0.0,0.0,87,0.00,,,0.00,Wunderground v.1.15,2013-04-09 03:40:00,
2013-04-08 23:46:00,39.0,35.2,30.13,West,276,0.0,0.0,86,0.00,,,0.00,Wunderground v.1.15,2013-04-09 03:46:00,
2013-04-08 23:51:00,38.8,35.0,30.13,NW,326,0.0,0.0,86,0.00,,,0.00,Wunderground v.1.15,2013-04-09 03:51:00,
2013-04-08 23:56:00,38.7,34.9,30.13,North,10,0.0,0.0,86,0.00,,,0.00,Wunderground v.1.15,2013-04-09 03:56:00,